地図

経路データ

SID SEASON NUMBER BASIN SUBBASIN NAME ISO_TIME NATURE LAT LON WMO_WIND WMO_PRES WMO_AGENCY TRACK_TYPE DIST2LAND LANDFALL IFLAG USA_AGENCY USA_ATCF_ID USA_LAT USA_LON USA_RECORD USA_STATUS USA_WIND USA_PRES USA_SSHS USA_R34_NE USA_R34_SE USA_R34_SW USA_R34_NW USA_R50_NE USA_R50_SE USA_R50_SW USA_R50_NW USA_R64_NE USA_R64_SE USA_R64_SW USA_R64_NW USA_POCI USA_ROCI USA_RMW USA_EYE TOKYO_LAT TOKYO_LON TOKYO_GRADE TOKYO_WIND TOKYO_PRES TOKYO_R50_DIR TOKYO_R50_LONG TOKYO_R50_SHORT TOKYO_R30_DIR TOKYO_R30_LONG TOKYO_R30_SHORT TOKYO_LAND CMA_LAT CMA_LON CMA_CAT CMA_WIND CMA_PRES HKO_LAT HKO_LON HKO_CAT HKO_WIND HKO_PRES NEWDELHI_LAT NEWDELHI_LON NEWDELHI_GRADE NEWDELHI_WIND NEWDELHI_PRES NEWDELHI_CI NEWDELHI_DP NEWDELHI_POCI REUNION_LAT REUNION_LON REUNION_TYPE REUNION_WIND REUNION_PRES REUNION_TNUM REUNION_CI REUNION_RMW REUNION_R34_NE REUNION_R34_SE REUNION_R34_SW REUNION_R34_NW REUNION_R50_NE REUNION_R50_SE REUNION_R50_SW REUNION_R50_NW REUNION_R64_NE REUNION_R64_SE REUNION_R64_SW REUNION_R64_NW BOM_LAT BOM_LON BOM_TYPE BOM_WIND BOM_PRES BOM_TNUM BOM_CI BOM_RMW BOM_R34_NE BOM_R34_SE BOM_R34_SW BOM_R34_NW BOM_R50_NE BOM_R50_SE BOM_R50_SW BOM_R50_NW BOM_R64_NE BOM_R64_SE BOM_R64_SW BOM_R64_NW BOM_ROCI BOM_POCI BOM_EYE BOM_POS_METHOD BOM_PRES_METHOD NADI_LAT NADI_LON NADI_CAT NADI_WIND NADI_PRES WELLINGTON_LAT WELLINGTON_LON WELLINGTON_WIND WELLINGTON_PRES DS824_LAT DS824_LON DS824_STAGE DS824_WIND DS824_PRES TD9636_LAT TD9636_LON TD9636_STAGE TD9636_WIND TD9636_PRES TD9635_LAT TD9635_LON TD9635_WIND TD9635_PRES TD9635_ROCI NEUMANN_LAT NEUMANN_LON NEUMANN_CLASS NEUMANN_WIND NEUMANN_PRES MLC_LAT MLC_LON MLC_CLASS MLC_WIND MLC_PRES USA_GUST BOM_GUST BOM_GUST_PER REUNION_GUST REUNION_GUST_PER USA_SEAHGT USA_SEARAD_NE USA_SEARAD_SE USA_SEARAD_SW USA_SEARAD_NW STORM_SPEED STORM_DIR
1971255N11312 1971 115 NA NA IRENE:OLIVIA 1971-09-11 18:00:00 TS 11.0000 -48.5000 25 1009 hurdat_atl main 791 754 O_____________ hurdat_atl AL181971 11.0000 -48.5000 TD 25 1009 -1 18 278
1971255N11312 1971 115 NA NA IRENE:OLIVIA 1971-09-11 21:00:00 TS 11.1254 -49.3826 main 749 729 P_____________ AL181971 11.1254 -49.3826 TD 25 -1 18 280
1971255N11312 1971 115 NA NA IRENE:OLIVIA 1971-09-12 00:00:00 TS 11.3000 -50.3000 25 hurdat_atl main 726 708 O_____________ hurdat_atl AL181971 11.3000 -50.3000 TD 25 -1 19 283
1971255N11312 1971 115 NA NA IRENE:OLIVIA 1971-09-12 03:00:00 TS 11.5500 -51.2648 main 703 696 P_____________ AL181971 11.5500 -51.2648 TD 25 -1 19 285
1971255N11312 1971 115 NA NA IRENE:OLIVIA 1971-09-12 06:00:00 TS 11.8000 -52.2000 25 hurdat_atl main 696 684 O_____________ hurdat_atl AL181971 11.8000 -52.2000 TD 25 -1 18 283
1971255N11312 1971 115 NA NA IRENE:OLIVIA 1971-09-12 09:00:00 TS 11.9573 -53.0527 main 693 686 P_____________ AL181971 11.9573 -53.0527 TD 25 -1 16 281
1971255N11312 1971 115 NA NA IRENE:OLIVIA 1971-09-12 12:00:00 TS 12.1000 -53.8000 25 1009 hurdat_atl main 695 695 O_____________ hurdat_atl AL181971 12.1000 -53.8000 TD 25 1009 -1 14 285
1971255N11312 1971 115 NA NA IRENE:OLIVIA 1971-09-12 15:00:00 TS 12.3220 -54.4074 main 696 667 P_____________ AL181971 12.3220 -54.4074 TD 25 -1 12 289
1971255N11312 1971 115 NA NA IRENE:OLIVIA 1971-09-12 18:00:00 TS 12.5000 -55.0000 25 hurdat_atl main 667 611 O_____________ hurdat_atl AL181971 12.5000 -55.0000 TD 25 -1 13 279
1971255N11312 1971 115 NA NA IRENE:OLIVIA 1971-09-12 21:00:00 TS 12.5301 -55.7427 main 611 530 P_____________ AL181971 12.5301 -55.7427 TD 25 -1 15 270
1971255N11312 1971 115 NA NA IRENE:OLIVIA 1971-09-13 00:00:00 TS 12.5000 -56.5000 25 hurdat_atl main 530 470 O_____________ hurdat_atl AL181971 12.5000 -56.5000 TD 25 -1 14 269
1971255N11312 1971 115 NA NA IRENE:OLIVIA 1971-09-13 03:00:00 TS 12.4998 -57.1725 main 460 402 P_____________ AL181971 12.4998 -57.1725 TD 25 -1 13 270
1971255N11312 1971 115 NA NA IRENE:OLIVIA 1971-09-13 06:00:00 TS 12.5000 -57.8000 25 hurdat_atl main 402 347 O_____________ hurdat_atl AL181971 12.5000 -57.8000 TD 25 -1 12 271
1971255N11312 1971 115 NA NA IRENE:OLIVIA 1971-09-13 09:00:00 TS 12.5150 -58.4374 main 347 296 P_____________ AL181971 12.5150 -58.4374 TD 25 -1 12 270
1971255N11312 1971 115 NA NA IRENE:OLIVIA 1971-09-13 12:00:00 TS 12.5000 -59.0000 25 hurdat_atl main 296 258 O_____________ hurdat_atl AL181971 12.5000 -59.0000 TD 25 -1 10 264
1971255N11312 1971 115 NA NA IRENE:OLIVIA 1971-09-13 15:00:00 TS 12.4074 -59.4526 main 250 221 P_____________ AL181971 12.4074 -59.4526 TD 25 -1 8 256
1971255N11312 1971 115 NA CS IRENE:OLIVIA 1971-09-13 18:00:00 TS 12.3000 -59.8000 25 hurdat_atl main 221 194 O_____________ hurdat_atl AL181971 12.3000 -59.8000 TD 25 -1 6 255
1971255N11312 1971 115 NA CS IRENE:OLIVIA 1971-09-13 21:00:00 TS 12.2424 -60.0724 main 194 184 P_____________ AL181971 12.2424 -60.0724 TD 25 -1 5 258
1971255N11312 1971 115 NA CS IRENE:OLIVIA 1971-09-14 00:00:00 TS 12.2000 -60.3000 25 hurdat_atl main 184 176 O_____________ hurdat_atl AL181971 12.2000 -60.3000 TD 25 -1 5 259
1971255N11312 1971 115 NA CS IRENE:OLIVIA 1971-09-14 03:00:00 TS 12.1500 -60.5425 main 166 158 P_____________ AL181971 12.1500 -60.5425 TD 25 -1 5 258
1971255N11312 1971 115 NA CS IRENE:OLIVIA 1971-09-14 06:00:00 TS 12.1000 -60.8000 25 hurdat_atl main 158 156 O_____________ hurdat_atl AL181971 12.1000 -60.8000 TD 25 -1 5 259
1971255N11312 1971 115 NA CS IRENE:OLIVIA 1971-09-14 09:00:00 TS 12.0500 -61.0850 main 145 145 P_____________ AL181971 12.0500 -61.0850 TD 25 -1 6 260
1971255N11312 1971 115 NA CS IRENE:OLIVIA 1971-09-14 12:00:00 TS 12.0000 -61.4000 25 1007 hurdat_atl main 145 145 O_____________ hurdat_atl AL181971 12.0000 -61.4000 TD 25 1007 -1 6 262
1971255N11312 1971 115 NA CS IRENE:OLIVIA 1971-09-14 15:00:00 TS 11.9574 -61.7275 main 145 134 P_____________ AL181971 11.9574 -61.7275 TD 25 -1 7 262
1971255N11312 1971 115 NA CS IRENE:OLIVIA 1971-09-14 18:00:00 TS 11.9000 -62.1000 25 hurdat_atl main 134 123 O_____________ hurdat_atl AL181971 11.9000 -62.1000 TD 25 -1 8 259
1971255N11312 1971 115 NA CS IRENE:OLIVIA 1971-09-14 21:00:00 TS 11.8075 -62.5275 main 123 111 P_____________ AL181971 11.8075 -62.5275 TD 27 -1 9 257
1971255N11312 1971 115 NA CS IRENE:OLIVIA 1971-09-15 00:00:00 TS 11.7000 -63.0000 30 hurdat_atl main 111 101 O_____________ hurdat_atl AL181971 11.7000 -63.0000 TD 30 -1 10 257
1971255N11312 1971 115 NA CS IRENE:OLIVIA 1971-09-15 03:00:00 TS 11.5925 -63.4925 main 109 100 P_____________ AL181971 11.5925 -63.4925 TD 30 -1 10 258
1971255N11312 1971 115 NA CS IRENE:OLIVIA 1971-09-15 06:00:00 TS 11.5000 -64.0000 30 hurdat_atl main 101 90 O_____________ hurdat_atl AL181971 11.5000 -64.0000 TD 30 -1 10 260
1971255N11312 1971 115 NA CS IRENE:OLIVIA 1971-09-15 09:00:00 TS 11.4273 -64.4850 main 95 95 P_____________ AL181971 11.4273 -64.4850 TD 30 -1 10 264
1971255N11312 1971 115 NA CS IRENE:OLIVIA 1971-09-15 12:00:00 TS 11.4000 -65.0000 30 hurdat_atl main 125 104 O_____________ hurdat_atl AL181971 11.4000 -65.0000 TD 30 -1 11 269
1971255N11312 1971 115 NA CS IRENE:OLIVIA 1971-09-15 15:00:00 TS 11.4124 -65.5776 main 99 90 P_____________ AL181971 11.4124 -65.5776 TD 30 -1 12 275
1971255N11312 1971 115 NA CS IRENE:OLIVIA 1971-09-15 18:00:00 TS 11.5000 -66.2000 30 hurdat_atl main 100 100 O_____________ hurdat_atl AL181971 11.5000 -66.2000 TD 30 -1 13 283
1971255N11312 1971 115 NA CS IRENE:OLIVIA 1971-09-15 21:00:00 TS 11.6848 -66.8274 main 123 123 P_____________ AL181971 11.6848 -66.8274 TD 30 -1 13 287
1971255N11312 1971 115 NA CS IRENE:OLIVIA 1971-09-16 00:00:00 TS 11.9000 -67.5000 30 hurdat_atl main 125 89 O_____________ hurdat_atl AL181971 11.9000 -67.5000 TD 30 -1 14 285
1971255N11312 1971 115 NA CS IRENE:OLIVIA 1971-09-16 03:00:00 TS 12.0574 -68.2351 main 99 79 P_____________ AL181971 12.0574 -68.2351 TD 30 -1 15 282
1971255N11312 1971 115 NA CS IRENE:OLIVIA 1971-09-16 06:00:00 TS 12.2000 -69.0000 30 hurdat_atl main 89 31 O_____________ hurdat_atl AL181971 12.2000 -69.0000 TD 30 -1 15 282
1971255N11312 1971 115 NA CS IRENE:OLIVIA 1971-09-16 09:00:00 TS 12.3650 -69.7724 main 35 33 P_____________ AL181971 12.3650 -69.7724 TD 30 -1 15 282
1971255N11312 1971 115 NA CS IRENE:OLIVIA 1971-09-16 12:00:00 TS 12.5000 -70.5000 30 hurdat_atl main 55 40 O_____________ hurdat_atl AL181971 12.5000 -70.5000 TD 30 -1 13 279
1971255N11312 1971 115 NA CS IRENE:OLIVIA 1971-09-16 15:00:00 TS 12.5797 -71.1150 main 40 22 P_____________ AL181971 12.5797 -71.1150 TD 30 -1 12 275
1971255N11312 1971 115 NA CS IRENE:OLIVIA 1971-09-16 18:00:00 TS 12.6000 -71.7000 30 hurdat_atl main 22 22 O_____________ hurdat_atl AL181971 12.6000 -71.7000 TD 30 -1 12 269
1971255N11312 1971 115 NA CS IRENE:OLIVIA 1971-09-16 21:00:00 TS 12.5648 -72.3276 main 46 46 P_____________ AL181971 12.5648 -72.3276 TD 32 -1 13 265
1971255N11312 1971 115 NA CS IRENE:OLIVIA 1971-09-17 00:00:00 TS 12.5000 -73.0000 35 hurdat_atl main 92 92 O_____________ hurdat_atl AL181971 12.5000 -73.0000 TS 35 0 14 265
1971255N11312 1971 115 NA CS IRENE:OLIVIA 1971-09-17 03:00:00 TS 12.4499 -73.7350 main 124 124 P_____________ AL181971 12.4499 -73.7350 TS 35 0 15 266
1971255N11312 1971 115 NA CS IRENE:OLIVIA 1971-09-17 06:00:00 TS 12.4000 -74.5000 35 hurdat_atl main 138 138 O_____________ hurdat_atl AL181971 12.4000 -74.5000 TS 35 0 15 266
1971255N11312 1971 115 NA CS IRENE:OLIVIA 1971-09-17 09:00:00 TS 12.3573 -75.2499 main 160 155 P_____________ AL181971 12.3573 -75.2499 TS 37 0 15 266
1971255N11312 1971 115 NA CS IRENE:OLIVIA 1971-09-17 12:00:00 TS 12.3000 -76.0000 40 1005 hurdat_atl main 184 184 O_____________ hurdat_atl AL181971 12.3000 -76.0000 TS 40 1005 0 15 264
1971255N11312 1971 115 NA CS IRENE:OLIVIA 1971-09-17 15:00:00 TS 12.1998 -76.7501 main 226 226 P_____________ AL181971 12.1998 -76.7501 TS 42 0 15 262
1971255N11312 1971 115 NA CS IRENE:OLIVIA 1971-09-17 18:00:00 TS 12.1000 -77.5000 45 hurdat_atl main 275 275 O_____________ hurdat_atl AL181971 12.1000 -77.5000 TS 45 0 15 264
1971255N11312 1971 115 NA CS IRENE:OLIVIA 1971-09-17 21:00:00 TS 12.0573 -78.2498 main 307 280 P_____________ AL181971 12.0573 -78.2498 TS 47 0 15 266
1971255N11312 1971 115 NA CS IRENE:OLIVIA 1971-09-18 00:00:00 TS 12.0000 -79.0000 50 hurdat_atl main 280 268 O_____________ hurdat_atl AL181971 12.0000 -79.0000 TS 50 0 15 262
1971255N11312 1971 115 NA CS IRENE:OLIVIA 1971-09-18 03:00:00 TS 11.8576 -79.7876 main 269 255 P_____________ AL181971 11.8576 -79.7876 TS 52 0 15 258
1971255N11312 1971 115 NA CS IRENE:OLIVIA 1971-09-18 06:00:00 TS 11.7000 -80.5000 55 1002 hurdat_atl main 261 259 O_____________ hurdat_atl AL181971 11.7000 -80.5000 TS 55 1002 0 13 258
1971255N11312 1971 115 NA CS IRENE:OLIVIA 1971-09-18 09:00:00 TS 11.5848 -81.0524 main 272 229 P_____________ AL181971 11.5848 -81.0524 TS 57 999 0 10 258
1971255N11312 1971 115 NA CS IRENE:OLIVIA 1971-09-18 12:00:00 TS 11.5000 -81.5000 60 hurdat_atl main 229 185 I_____________ hurdat_atl AL181971 11.5000 -81.5000 TS 60 997 0 9 261
1971255N11312 1971 115 NA CS IRENE:OLIVIA 1971-09-18 15:00:00 TS 11.4424 -81.9299 main 186 143 P_____________ AL181971 11.4424 -81.9299 TS 65 995 1 8 263
1971255N11312 1971 115 NA CS IRENE:OLIVIA 1971-09-18 18:00:00 TS 11.4000 -82.3000 70 993 hurdat_atl main 143 114 O_____________ hurdat_atl AL181971 11.4000 -82.3000 HU 70 993 1 7 261
1971255N11312 1971 115 NA CS IRENE:OLIVIA 1971-09-18 21:00:00 TS 11.3349 -82.6150 main 114 83 P_____________ AL181971 11.3349 -82.6150 HU 67 991 1 6 260
1971255N11312 1971 115 NA CS IRENE:OLIVIA 1971-09-19 00:00:00 TS 11.3000 -82.9000 65 989 hurdat_atl main 83 55 O_____________ hurdat_atl AL181971 11.3000 -82.9000 HU 65 989 1 6 270
1971255N11312 1971 115 NA CS IRENE:OLIVIA 1971-09-19 03:00:00 TS 11.3349 -83.1850 main 55 24 P_____________ AL181971 11.3349 -83.1850 HU 65 1 6 280
1971255N11312 1971 115 NA CS IRENE:OLIVIA 1971-09-19 06:00:00 TS 11.4000 -83.5000 65 hurdat_atl main 24 0 O_____________ hurdat_atl AL181971 11.4000 -83.5000 HU 65 1 7 279
1971255N11312 1971 115 NA CS IRENE:OLIVIA 1971-09-19 09:00:00 TS 11.4425 -83.8925 main 0 0 P_____________ AL181971 11.4425 -83.8925 HU 62 0 8 277
1971255N11312 1971 115 NA NA IRENE:OLIVIA 1971-09-19 12:00:00 TS 11.5000 -84.3000 60 hurdat_atl main 0 0 O_____________ hurdat_atl AL181971 11.5000 -84.3000 TS 60 0 8 281
1971255N11312 1971 115 NA NA IRENE:OLIVIA 1971-09-19 15:00:00 TS 11.5924 -84.6500 main 0 0 P_____________ AL181971 11.5924 -84.6500 TS 55 0 7 286
1971255N11312 1971 115 NA NA IRENE:OLIVIA 1971-09-19 18:00:00 TS 11.7000 -85.0000 50 hurdat_atl main 0 0 O_____________ hurdat_atl AL181971 11.7000 -85.0000 TS 50 0 8 285
1971255N11312 1971 115 NA NA IRENE:OLIVIA 1971-09-19 21:00:00 TS 11.7925 -85.4000 main 0 0 P_____________ AL181971 11.7925 -85.4000 TS 40 0 6 275
1971255N11312 1971 115 NA NA IRENE:OLIVIA 1971-09-20 00:00:00 TS 11.7462 -85.5692 30 hurdat_atl main 0 0 O________OO___ hurdat_atl AL181971 11.9000 -85.8000 TD 30 -1 11.5000 -85.2000 TC 25 11.5000 -85.2000 1 5 275
1971255N11312 1971 115 NA NA IRENE:OLIVIA 1971-09-20 03:00:00 TS 11.8336 -85.8757 main 0 0 P________PP___ AL181971 12.0574 -86.1575 TD 30 -1 11.6626 -85.6474 TC 25 11.6225 -85.6622 1 7 286
1971255N11312 1971 115 NA NA IRENE:OLIVIA 1971-09-20 06:00:00 TS 11.9320 -86.2417 30 hurdat_atl main 0 0 O________OP___ hurdat_atl AL181971 12.2000 -86.5000 TD 30 -1 11.8000 -86.1000 TC 25 11.7457 -86.1197 1 8 282
1971255N11312 1971 115 EP MM IRENE:OLIVIA 1971-09-20 09:00:00 TS 11.9980 -86.6426 main 0 0 P________PP___ AL181971 12.2575 -86.8501 TD 32 -1 11.9000 -86.5576 TC 35 11.8710 -86.5674 1 8 280
1971255N11312 1971 115 EP MM IRENE:OLIVIA 1971-09-20 12:00:00 TS 12.0692 -87.0462 35 hurdat_atl main 24 24 O________OO___ hurdat_atl AL181971 12.3000 -87.2000 TS 35 0 12.0000 -87.0000 TC 45 12.0000 -87.0000 2 8 284
1971255N11312 1971 115 EP MM IRENE:OLIVIA 1971-09-20 15:00:00 TS 12.1863 -87.4324 main 39 39 P________PP___ AL181971 12.4075 -87.5499 TS 35 0 12.1499 -87.4075 TC 45 12.1328 -87.4144 2 8 288
1971255N11312 1971 115 EP MM IRENE:OLIVIA 1971-09-20 18:00:00 TS 12.3118 -87.8118 35 hurdat_atl main 62 62 O________OP___ hurdat_atl AL181971 12.5000 -87.9000 TS 35 0 12.3000 -87.8000 TC 45 12.2646 -87.8150 2 8 286
1971255N11312 1971 115 EP MM IRENE:OLIVIA 1971-09-20 21:00:00 TS 12.4038 -88.2017 main 77 77 P________PP___ AL181971 12.4999 -88.2426 TS 40 0 12.4074 -88.2001 TC 45 12.3891 -88.2081 2 8 284
1971255N11312 1971 115 EP MM IRENE:OLIVIA 1971-09-21 00:00:00 TS 12.5000 -88.6000 45 hurdat_epa main 78 67 O________OO___ hurdat_epa EP151971 12.5000 -88.6000 TS 45 0 12.5000 -88.6000 TC 45 12.5000 -88.6000 2 8 284
1971255N11312 1971 115 EP MM IRENE:OLIVIA 1971-09-21 03:00:00 TS 12.6030 -89.0017 main 70 70 P________PP___ EP151971 12.5925 -88.9924 TS 47 0 12.6074 -89.0000 TC 47 12.5852 -89.0083 2 8 284
1971255N11312 1971 115 EP MM IRENE:OLIVIA 1971-09-21 06:00:00 TS 12.6915 -89.4031 50 hurdat_epa main 84 84 O________OP___ hurdat_epa EP151971 12.7000 -89.4000 TS 50 0 12.7000 -89.4000 TC 50 12.6574 -89.4153 2 8 280
1971255N11312 1971 115 EP MM IRENE:OLIVIA 1971-09-21 09:00:00 TS 12.7451 -89.8090 main 89 79 P________PP___ EP151971 12.7500 -89.8076 TS 50 0 12.7500 -89.8076 TC 50 12.7259 -89.8146 2 8 278
1971255N11312 1971 115 EP MM IRENE:OLIVIA 1971-09-21 12:00:00 TS 12.8000 -90.2000 50 hurdat_epa main 89 89 O________OO___ hurdat_epa EP151971 12.8000 -90.2000 TS 50 0 12.8000 -90.2000 TC 50 12.8000 -90.2000 2 7 281
1971255N11312 1971 115 EP MM IRENE:OLIVIA 1971-09-21 15:00:00 TS 12.8933 -90.5581 main 109 100 P________PP___ EP151971 12.8924 -90.5575 TS 50 0 12.8924 -90.5575 TC 50 12.8966 -90.5603 2 7 286
1971255N11312 1971 115 EP MM IRENE:OLIVIA 1971-09-21 18:00:00 TS 12.9999 -90.9015 50 990 hurdat_epa main 100 89 O________OP___ hurdat_epa EP151971 13.0000 -90.9000 TS 50 990 0 13.0000 -90.9000 TC 50 990 12.9996 -90.9075 2 7 287
1971255N11312 1971 115 EP MM IRENE:OLIVIA 1971-09-21 21:00:00 TS 13.1005 -91.2502 main 89 79 P________PP___ EP151971 13.1000 -91.2500 TS 60 0 13.1000 -91.2500 TC 60 13.1029 -91.2510 2 7 286
1971255N11312 1971 115 EP MM IRENE:OLIVIA 1971-09-22 00:00:00 TS 13.2000 -91.6000 70 hurdat_epa main 84 84 O________OO___ hurdat_epa EP151971 13.2000 -91.6000 HU 70 1 13.2000 -91.6000 TC 70 13.2000 -91.6000 4 7 287
1971255N11312 1971 115 EP MM IRENE:OLIVIA 1971-09-22 03:00:00 TS 13.3039 -91.9427 main 93 93 P________PP___ EP151971 13.3074 -91.9425 HU 70 1 13.3074 -91.9425 TC 70 13.2899 -91.9435 4 7 286
1971255N11312 1971 115 EP MM IRENE:OLIVIA 1971-09-22 06:00:00 TS 13.3944 -92.2995 70 hurdat_epa main 104 104 O________OP___ hurdat_epa EP151971 13.4000 -92.3000 HU 70 1 13.4000 -92.3000 TC 70 13.3719 -92.2976 4 7 282
1971255N11312 1971 115 EP MM IRENE:OLIVIA 1971-09-22 09:00:00 TS 13.4545 -92.6776 main 124 124 P________PP___ EP151971 13.4574 -92.6776 HU 70 1 13.4574 -92.6776 TC 70 13.4429 -92.6779 4 8 278
1971255N11312 1971 115 EP MM IRENE:OLIVIA 1971-09-22 12:00:00 TS 13.5000 -93.1000 70 hurdat_epa main 148 148 O________OO___ hurdat_epa EP151971 13.5000 -93.1000 HU 70 1 13.5000 -93.1000 TC 70 13.5000 -93.1000 4 9 277
1971255N11312 1971 115 EP MM IRENE:OLIVIA 1971-09-22 15:00:00 TS 13.5547 -93.5800 main 178 178 P________PP___ EP151971 13.5574 -93.5775 HU 70 1 13.5574 -93.5775 TC 70 13.5436 -93.5901 4 10 276
1971255N11312 1971 115 EP MM IRENE:OLIVIA 1971-09-22 18:00:00 TS 13.5945 -94.1040 70 983 hurdat_epa main 217 217 O________OP___ hurdat_epa EP151971 13.6000 -94.1000 HU 70 983 1 13.6000 -94.1000 TC 70 983 13.5728 -94.1201 4 10 273
1971255N11312 1971 115 EP MM IRENE:OLIVIA 1971-09-22 21:00:00 TS 13.6041 -94.6531 main 264 258 P________PP___ EP151971 13.6075 -94.6501 HU 70 1 13.6075 -94.6501 TC 70 13.5905 -94.6651 4 11 270
1971255N11312 1971 115 EP MM IRENE:OLIVIA 1971-09-23 00:00:00 TS 13.6000 -95.2000 70 hurdat_epa main 258 241 O________OO___ hurdat_epa EP151971 13.6000 -95.2000 HU 70 1 13.6000 -95.2000 TC 70 13.6000 -95.2000 4 10 270
1971255N11312 1971 115 EP MM IRENE:OLIVIA 1971-09-23 03:00:00 TS 13.6005 -95.7107 main 241 228 P________PP___ EP151971 13.5999 -95.7150 HU 70 1 13.5999 -95.7150 TC 70 13.6028 -95.6935 4 10 270
1971255N11312 1971 115 EP MM IRENE:OLIVIA 1971-09-23 06:00:00 TS 13.5999 -96.1945 70 hurdat_epa main 228 223 O________OP___ hurdat_epa EP151971 13.6000 -96.2000 HU 70 1 13.6000 -96.2000 TC 70 13.5995 -96.1727 4 9 270
1971255N11312 1971 115 EP MM IRENE:OLIVIA 1971-09-23 09:00:00 TS 13.5992 -96.6601 main 224 224 P________PP___ EP151971 13.5999 -96.6650 HU 75 1 13.5999 -96.6650 TC 75 13.5966 -96.6404 4 9 270
1971255N11312 1971 115 EP MM IRENE:OLIVIA 1971-09-23 12:00:00 TS 13.6000 -97.1000 80 980 hurdat_epa main 230 230 O________OO___ hurdat_epa EP151971 13.6000 -97.1000 HU 80 980 1 13.6000 -97.1000 TC 80 980 13.6000 -97.1000 4 8 270
1971255N11312 1971 115 EP MM IRENE:OLIVIA 1971-09-23 15:00:00 TS 13.5940 -97.4990 main 243 243 P________PP___ EP151971 13.5923 -97.4926 HU 80 1 13.5923 -97.4926 TC 80 13.6008 -97.5250 4 8 270
1971255N11312 1971 115 EP MM IRENE:OLIVIA 1971-09-23 18:00:00 TS 13.6023 -97.9096 80 hurdat_epa main 263 263 O________OP___ hurdat_epa EP151971 13.6000 -97.9000 HU 80 1 13.6000 -97.9000 TC 80 13.6114 -97.9480 4 8 273
1971255N11312 1971 115 EP MM IRENE:OLIVIA 1971-09-23 21:00:00 TS 13.6361 -98.3695 main 276 268 P________PP___ EP151971 13.6348 -98.3626 HU 80 1 13.6348 -98.3626 TC 80 13.6413 -98.3970 4 10 276
1971255N11312 1971 115 EP MM IRENE:OLIVIA 1971-09-24 00:00:00 TS 13.7000 -98.9000 80 hurdat_epa main 283 283 O________OO___ hurdat_epa EP151971 13.7000 -98.9000 HU 80 1 13.7000 -98.9000 TC 80 13.7000 -98.9000 4 11 278
1971255N11312 1971 115 EP MM IRENE:OLIVIA 1971-09-24 03:00:00 TS 13.7840 -99.5206 main 296 296 P________PP___ EP151971 13.7850 -99.5276 HU 80 1 13.7850 -99.5276 TC 80 13.7802 -99.4927 4 13 279
1971255N11312 1971 115 EP MM IRENE:OLIVIA 1971-09-24 06:00:00 TS 13.8980 -100.188 80 hurdat_epa main 317 314 O________OP___ hurdat_epa EP151971 13.9000 -100.200 HU 80 1 13.9000 -100.200 TC 80 13.8902 -100.140 4 13 281
1971255N11312 1971 115 EP MM IRENE:OLIVIA 1971-09-24 09:00:00 TS 14.0339 -100.844 main 324 318 P________PP___ EP151971 14.0348 -100.850 HU 80 1 14.0348 -100.850 TC 80 14.0300 -100.818 4 13 283
1971255N11312 1971 115 EP MM IRENE:OLIVIA 1971-09-24 12:00:00 TS 14.2000 -101.500 80 hurdat_epa main 339 338 O________OO___ hurdat_epa EP151971 14.2000 -101.500 HU 80 1 14.2000 -101.500 TC 80 14.2000 -101.500 4 13 285
1971255N11312 1971 115 EP MM IRENE:OLIVIA 1971-09-24 15:00:00 TS 14.3830 -102.152 main 345 342 P________PP___ EP151971 14.3848 -102.150 HU 80 1 14.3848 -102.150 TC 80 14.3756 -102.158 4 13 287
1971255N11312 1971 115 EP MM IRENE:OLIVIA 1971-09-24 18:00:00 TS 14.5964 -102.803 80 hurdat_epa main 352 352 O________OP___ hurdat_epa EP151971 14.6000 -102.800 HU 80 1 14.6000 -102.800 TC 80 14.5821 -102.816 4 13 289
1971255N11312 1971 115 EP MM IRENE:OLIVIA 1971-09-24 21:00:00 TS 14.8264 -103.453 main 369 355 P________PP___ EP151971 14.8273 -103.450 HU 80 1 14.8273 -103.450 TC 80 14.8225 -103.465 4 14 292
1971255N11312 1971 115 EP MM IRENE:OLIVIA 1971-09-25 00:00:00 TS 15.1000 -104.100 80 974 hurdat_epa main 359 345 O________OO___ hurdat_epa EP151971 15.1000 -104.100 HU 80 974 1 15.1000 -104.100 TC 80 974 15.1000 -104.100 4 14 296
1971255N11312 1971 115 EP MM IRENE:OLIVIA 1971-09-25 03:00:00 TS 15.4291 -104.762 main 352 341 P________PP___ EP151971 15.4349 -104.765 HU 80 1 15.4349 -104.765 TC 80 15.4059 -104.751 4 14 299
1971255N11312 1971 115 EP MM IRENE:OLIVIA 1971-09-25 06:00:00 TS 15.7895 -105.396 80 hurdat_epa main 345 342 O________OP___ hurdat_epa EP151971 15.8000 -105.400 HU 80 1 15.8000 -105.400 TC 80 15.7476 -105.382 4 14 301
1971255N11312 1971 115 EP MM IRENE:OLIVIA 1971-09-25 09:00:00 TS 16.1370 -105.991 main 362 351 P________PP___ EP151971 16.1424 -105.995 HU 80 1 16.1424 -105.995 TC 80 16.1154 -105.973 4 13 304
1971255N11312 1971 115 EP MM IRENE:OLIVIA 1971-09-25 12:00:00 TS 16.5000 -106.500 80 hurdat_epa main 351 339 O________OO___ hurdat_epa EP151971 16.5000 -106.500 HU 80 1 16.5000 -106.500 TC 80 16.5000 -106.500 4 11 311
1971255N11312 1971 115 EP MM IRENE:OLIVIA 1971-09-25 15:00:00 TS 16.8940 -106.886 main 339 330 P________PP___ EP151971 16.8922 -106.873 HU 90 2 16.8922 -106.873 TC 90 16.9009 -106.940 4 11 319
1971255N11312 1971 115 EP MM IRENE:OLIVIA 1971-09-25 18:00:00 TS 17.3028 -107.224 100 hurdat_epa main 330 329 O________OP___ hurdat_epa EP151971 17.3000 -107.200 HU 100 3 17.3000 -107.200 TC 100 17.3138 -107.318 4 11 320
1971255N11312 1971 115 EP MM IRENE:OLIVIA 1971-09-25 21:00:00 TS 17.7100 -107.612 main 329 329 P________PP___ EP151971 17.7075 -107.600 HU 95 2 17.7075 -107.600 TC 95 17.7198 -107.662 4 11 317
1971255N11312 1971 115 EP MM IRENE:OLIVIA 1971-09-26 00:00:00 TS 18.1000 -108.000 90 hurdat_epa main 335 335 O________OO___ hurdat_epa EP151971 18.1000 -108.000 HU 90 2 18.1000 -108.000 TC 90 18.1000 -108.000 4 10 317
1971255N11312 1971 115 EP MM IRENE:OLIVIA 1971-09-26 03:00:00 TS 18.4701 -108.362 main 347 347 P________PP___ EP151971 18.4723 -108.350 HU 90 2 18.4723 -108.350 TC 90 18.4614 -108.407 4 10 316
1971255N11312 1971 115 EP MM IRENE:OLIVIA 1971-09-26 06:00:00 TS 18.7980 -108.722 90 hurdat_epa main 361 361 O________OP___ hurdat_epa EP151971 18.8000 -108.700 HU 90 2 18.8000 -108.700 TC 90 18.7902 -108.810 4 10 310
1971255N11312 1971 115 EP MM IRENE:OLIVIA 1971-09-26 09:00:00 TS 19.0789 -109.134 main 384 384 P________PP___ EP151971 19.0801 -109.122 HU 90 2 19.0801 -109.122 TC 90 19.0739 -109.182 4 9 304
1971255N11312 1971 115 EP MM IRENE:OLIVIA 1971-09-26 12:00:00 TS 19.3000 -109.500 90 hurdat_epa main 403 380 O________OO___ hurdat_epa EP151971 19.3000 -109.500 HU 90 2 19.3000 -109.500 TC 90 19.3000 -109.500 4 7 305
1971255N11312 1971 115 EP MM IRENE:OLIVIA 1971-09-26 15:00:00 TS 19.4769 -109.734 main 380 369 P________PP___ EP151971 19.4799 -109.738 HU 95 2 19.4799 -109.738 TC 95 19.4650 -109.717 4 5 308
1971255N11312 1971 115 EP MM IRENE:OLIVIA 1971-09-26 18:00:00 TS 19.5948 -109.896 100 948 hurdat_epa main 369 357 O________OP___ hurdat_epa EP151971 19.6000 -109.900 HU 100 948 3 19.6000 -109.900 TC 100 948 19.5742 -109.881 4 3 303
1971255N11312 1971 115 EP MM IRENE:OLIVIA 1971-09-26 21:00:00 TS 19.6612 -110.040 main 357 357 P________PP___ EP151971 19.6649 -110.043 HU 95 2 19.6649 -110.043 TC 95 19.6464 -110.029 4 3 290
1971255N11312 1971 115 EP MM IRENE:OLIVIA 1971-09-27 00:00:00 TS 19.7000 -110.200 90 hurdat_epa main 358 349 O________OO___ hurdat_epa EP151971 19.7000 -110.200 HU 90 2 19.7000 -110.200 TC 90 19.7000 -110.200 4 4 284
1971255N11312 1971 115 EP MM IRENE:OLIVIA 1971-09-27 03:00:00 TS 19.7545 -110.430 main 349 349 P________PP___ EP151971 19.7500 -110.428 HU 90 2 19.7500 -110.428 TC 90 19.7725 -110.438 4 5 283
1971255N11312 1971 115 EP MM IRENE:OLIVIA 1971-09-27 06:00:00 TS 19.8060 -110.701 90 hurdat_epa main 354 348 O________OP___ hurdat_epa EP151971 19.8000 -110.700 HU 90 2 19.8000 -110.700 TC 90 19.8299 -110.705 4 5 281
1971255N11312 1971 115 EP MM IRENE:OLIVIA 1971-09-27 09:00:00 TS 19.8604 -110.987 main 351 351 P________PP___ EP151971 19.8574 -110.985 HU 87 2 19.8574 -110.985 TC 87 19.8724 -110.994 4 6 279
1971255N11312 1971 115 EP MM IRENE:OLIVIA 1971-09-27 12:00:00 TS 19.9000 -111.300 85 hurdat_epa main 361 361 O________OO___ hurdat_epa EP151971 19.9000 -111.300 HU 85 2 19.9000 -111.300 TC 85 19.9000 -111.300 4 6 274
1971255N11312 1971 115 EP MM IRENE:OLIVIA 1971-09-27 15:00:00 TS 19.9040 -111.646 main 374 374 P________PP___ EP151971 19.9075 -111.650 HU 85 2 19.9075 -111.650 TC 85 19.8902 -111.631 4 7 269
1971255N11312 1971 115 EP MM IRENE:OLIVIA 1971-09-27 18:00:00 TS 19.8941 -111.995 85 hurdat_epa main 394 394 O________OP___ hurdat_epa EP151971 19.9000 -112.000 HU 85 2 19.9000 -112.000 TC 85 19.8703 -111.973 4 6 268
1971255N11312 1971 115 EP MM IRENE:OLIVIA 1971-09-27 21:00:00 TS 19.8810 -112.319 main 411 411 P________PP___ EP151971 19.8850 -112.323 HU 82 1 19.8850 -112.323 TC 82 19.8652 -112.303 4 6 271
1971255N11312 1971 115 EP MM IRENE:OLIVIA 1971-09-28 00:00:00 TS 19.9000 -112.600 80 963 hurdat_epa main 430 430 O________OO___ hurdat_epa EP151971 19.9000 -112.600 HU 80 963 1 19.9000 -112.600 TC 80 963 19.9000 -112.600 4 5 281
1971255N11312 1971 115 EP MM IRENE:OLIVIA 1971-09-28 03:00:00 TS 19.9699 -112.818 main 434 434 P________PP___ EP151971 19.9699 -112.815 HU 80 1 19.9699 -112.815 TC 80 19.9699 -112.828 4 4 297
1971255N11312 1971 115 EP MM IRENE:OLIVIA 1971-09-28 06:00:00 TS 20.0974 -113.005 80 hurdat_epa main 440 440 O________OP___ hurdat_epa EP151971 20.1000 -113.000 HU 80 1 20.1000 -113.000 TC 80 20.0870 -113.023 4 5 309
1971255N11312 1971 115 EP MM IRENE:OLIVIA 1971-09-28 09:00:00 TS 20.2621 -113.195 main 440 440 P________PP___ EP151971 20.2625 -113.193 HU 77 1 20.2625 -113.193 TC 77 20.2606 -113.206 4 5 317
1971255N11312 1971 115 EP MM IRENE:OLIVIA 1971-09-28 12:00:00 TS 20.5000 -113.400 75 hurdat_epa main 441 437 O________OO___ hurdat_epa EP151971 20.5000 -113.400 HU 75 1 20.5000 -113.400 TC 75 20.5000 -113.400 2 7 323
1971255N11312 1971 115 EP MM IRENE:OLIVIA 1971-09-28 15:00:00 TS 20.8149 -113.648 main 439 426 P________PP___ EP151971 20.8200 -113.643 HU 62 0 20.8200 -113.643 TC 62 20.7944 -113.671 2 8 325
1971255N11312 1971 115 EP MM IRENE:OLIVIA 1971-09-28 18:00:00 TS 21.1906 -113.910 50 hurdat_epa main 426 406 O________OP___ hurdat_epa EP151971 21.2000 -113.900 TS 50 0 21.2000 -113.900 TC 50 21.1529 -113.951 2 9 327
1971255N11312 1971 115 EP MM IRENE:OLIVIA 1971-09-28 21:00:00 TS 21.5740 -114.179 main 406 382 P________PP___ EP151971 21.5775 -114.172 TS 47 0 21.5775 -114.172 TC 47 21.5600 -114.206 2 9 331
1971255N11312 1971 115 EP MM IRENE:OLIVIA 1971-09-29 00:00:00 TS 22.0000 -114.400 45 hurdat_epa main 382 346 O________OO___ hurdat_epa EP151971 22.0000 -114.400 TS 45 0 22.0000 -114.400 TC 45 22.0000 -114.400 2 10 340
1971255N11312 1971 115 EP MM IRENE:OLIVIA 1971-09-29 03:00:00 TS 22.4848 -114.539 main 346 316 P________PP___ EP151971 22.4924 -114.545 TS 42 0 22.4924 -114.545 TC 42 22.4541 -114.514 2 10 350
1971255N11312 1971 115 EP MM IRENE:OLIVIA 1971-09-29 06:00:00 TS 22.9869 -114.593 40 hurdat_epa main 316 289 O________OP___ hurdat_epa EP151971 23.0000 -114.600 TS 40 0 23.0000 -114.600 TC 40 22.9347 -114.563 2 10 357
1971255N11312 1971 115 EP MM IRENE:OLIVIA 1971-09-29 09:00:00 TS 23.4506 -114.581 main 283 253 P________PP___ EP151971 23.4575 -114.588 TS 40 0 23.4575 -114.588 TC 40 23.4229 -114.555 2 9 6
1971255N11312 1971 115 EP MM IRENE:OLIVIA 1971-09-29 12:00:00 TS 23.9000 -114.500 40 hurdat_epa main 253 229 O________OO___ hurdat_epa EP151971 23.9000 -114.500 TS 40 0 23.9000 -114.500 TC 40 23.9000 -114.500 2 9 12
1971255N11312 1971 115 EP MM IRENE:OLIVIA 1971-09-29 15:00:00 TS 24.3531 -114.370 main 226 201 P________PP___ EP151971 24.3575 -114.358 TS 32 -1 24.3575 -114.358 TC 32 24.3353 -114.419 2 9 16
1971255N11312 1971 115 EP MM IRENE:OLIVIA 1971-09-29 18:00:00 TS 24.7915 -114.219 25 hurdat_epa main 201 174 O________OP___ hurdat_epa EP151971 24.8000 -114.200 TD 25 -1 24.8000 -114.200 TC 25 24.7576 -114.295 2 9 16
1971255N11312 1971 115 EP MM IRENE:OLIVIA 1971-09-29 21:00:00 TS 25.1952 -114.110 main 174 129 P________PP___ EP151971 25.2000 -114.100 TD 25 -1 25.2000 -114.100 TC 25 25.1760 -114.150 2 8 14
1971255N11312 1971 115 EP MM IRENE:OLIVIA 1971-09-30 00:00:00 TS 25.6000 -114.000 25 hurdat_epa main 129 83 O________OO___ hurdat_epa EP151971 25.6000 -114.000 TD 25 -1 25.6000 -114.000 TC 25 25.6000 -114.000 6 9 15
1971255N11312 1971 115 EP MM IRENE:OLIVIA 1971-09-30 03:00:00 TS 26.0414 -113.852 main 83 24 P________PP___ EP151971 26.0425 -113.850 TD 25 -1 26.0425 -113.850 TC 25 26.0368 -113.862 6 9 17
1971255N11312 1971 115 EP MM IRENE:OLIVIA 1971-09-30 06:00:00 TS 26.4976 -113.706 25 hurdat_epa main 24 0 O________OP___ hurdat_epa EP151971 26.5000 -113.700 TD 25 -1 26.5000 -113.700 TC 25 26.4850 -113.735 6 10 14
1971255N11312 1971 115 EP MM IRENE:OLIVIA 1971-09-30 09:00:00 TS 26.9756 -113.602 main 0 0 P________PP___ EP151971 26.9799 -113.600 TD 25 -1 26.9799 -113.600 TC 25 26.9407 -113.616 6 9 11
1971255N11312 1971 115 EP MM IRENE:OLIVIA 1971-09-30 12:00:00 TS 27.4000 -113.500 25 hurdat_epa main 0 0 O________OO___ hurdat_epa EP151971 27.4000 -113.500 TD 25 -1 27.4000 -113.500 TC 25 27.4000 -113.500 6 8 17
1971255N11312 1971 115 EP MM IRENE:OLIVIA 1971-09-30 15:00:00 TS 27.7100 -113.350 main 0 0 P________P____ EP151971 27.7100 -113.350 TD 25 -1 27.7100 -113.350 TC 25 6 6 28
1971255N11312 1971 115 EP MM IRENE:OLIVIA 1971-09-30 18:00:00 MX 27.9000 -113.200 25 hurdat_epa main 0 0 O________O____ hurdat_epa EP151971 27.9000 -113.200 TD 25 -1 27.9000 -113.200 25 6 4 41
1971255N11312 1971 115 EP MM IRENE:OLIVIA 1971-09-30 21:00:00 MX 27.9800 -113.087 main 0 0 P________P____ EP151971 27.9800 -113.087 TD 25 -1 27.9800 -113.087 25 6 2 60
1971255N11312 1971 115 EP MM IRENE:OLIVIA 1971-10-01 00:00:00 MX 28.0000 -113.000 25 hurdat_epa main 0 O________O____ hurdat_epa EP151971 28.0000 -113.000 TD 25 -1 28.0000 -113.000 25 2 75

IBTrACS Databaseについて

本データベースは、米国NOAAが公開する1842年以降の世界の熱帯低気圧のベストトラックデータアーカイブInternational Best Track Archive for Climate Stewardship (IBTrACS)を、ウェブで閲覧しやすい形式に変換したものです。

最終更新日:2021-10-08